createdAt,value
2023-03-30T00:00:30.798Z,100392.66
2023-03-30T00:03:19.472Z,100377.00
2023-03-30T00:06:08.818Z,100375.72
2023-03-30T00:08:57.894Z,100370.00
2023-03-30T00:11:45.425Z,100359.09
2023-03-30T00:14:31.609Z,100348.69
2023-03-30T00:17:18.567Z,100360.56
2023-03-30T00:20:10.649Z,100344.06
2023-03-30T00:22:58.200Z,100357.28
2023-03-30T00:25:45.074Z,100362.88
2023-03-30T00:28:32.343Z,100380.88
2023-03-30T00:31:19.323Z,100377.44
2023-03-30T00:34:05.654Z,100377.50
2023-03-30T00:36:53.406Z,100380.69
2023-03-30T00:39:41.431Z,100373.56
2023-03-30T00:42:27.619Z,100370.97
2023-03-30T00:45:22.106Z,100385.31
2023-03-30T00:48:12.330Z,100382.50
2023-03-30T00:51:02.382Z,100378.66
2023-03-30T00:53:52.188Z,100372.16
2023-03-30T00:56:39.966Z,100357.66
2023-03-30T00:59:26.504Z,100339.59
2023-03-30T01:02:13.015Z,100351.19
2023-03-30T01:04:59.354Z,100344.75
2023-03-30T01:07:46.489Z,100347.91
2023-03-30T01:10:33.201Z,100339.81
2023-03-30T01:13:21.697Z,100331.94
2023-03-30T01:16:18.997Z,100342.69
2023-03-30T01:19:29.337Z,100346.06
2023-03-30T01:22:44.998Z,100334.28
2023-03-30T01:25:47.841Z,100338.84
2023-03-30T01:28:46.821Z,100336.63
2023-03-30T01:31:50.252Z,100340.19
2023-03-30T01:34:52.605Z,100346.91
2023-03-30T01:38:08.449Z,100347.16
2023-03-30T01:41:05.091Z,100336.56
2023-03-30T01:43:56.824Z,100338.59
2023-03-30T01:46:48.985Z,100329.34
2023-03-30T01:49:42.891Z,100298.09
2023-03-30T01:52:36.948Z,100303.16
2023-03-30T01:55:27.005Z,100304.59
2023-03-30T01:58:22.084Z,100307.00
2023-03-30T02:01:10.354Z,100298.88
2023-03-30T02:03:59.890Z,100299.09
2023-03-30T02:06:50.910Z,100305.88
2023-03-30T02:09:43.328Z,100278.69
2023-03-30T02:12:30.906Z,100285.88
2023-03-30T02:15:20.466Z,100293.91
2023-03-30T02:18:06.771Z,100307.72
2023-03-30T02:20:53.777Z,100307.72
2023-03-30T02:23:45.271Z,100312.50
2023-03-30T02:26:32.855Z,100320.38
2023-03-30T02:29:21.219Z,100326.03
2023-03-30T02:32:18.142Z,100329.34
2023-03-30T02:35:22.183Z,100329.91
2023-03-30T02:38:41.642Z,100338.41
2023-03-30T02:42:01.404Z,100326.59
2023-03-30T02:44:58.152Z,100327.13
2023-03-30T02:47:58.174Z,100324.28
2023-03-30T02:50:51.596Z,100312.63
2023-03-30T02:54:06.262Z,100312.53
2023-03-30T02:57:15.687Z,100312.53
2023-03-30T03:00:10.636Z,100304.84
2023-03-30T03:03:05.749Z,100300.00
2023-03-30T03:05:54.723Z,100296.03
2023-03-30T03:08:49.491Z,100278.50
2023-03-30T03:11:41.920Z,100264.72
2023-03-30T03:14:29.723Z,100256.34
2023-03-30T03:17:22.140Z,100261.72
2023-03-30T03:20:11.292Z,100267.88
2023-03-30T03:22:57.922Z,100266.50
2023-03-30T03:25:44.501Z,100267.97
2023-03-30T03:28:32.698Z,100261.84
2023-03-30T03:31:27.122Z,100256.56
2023-03-30T03:34:13.816Z,100243.13
2023-03-30T03:37:27.630Z,100235.38
2023-03-30T03:40:14.737Z,100236.63
2023-03-30T03:43:01.073Z,100233.28
2023-03-30T03:45:47.902Z,100230.00
2023-03-30T03:48:34.470Z,100227.19
2023-03-30T03:51:21.093Z,100230.78
2023-03-30T03:54:09.030Z,100234.44
2023-03-30T03:56:55.808Z,100239.50
2023-03-30T03:59:42.773Z,100231.81
2023-03-30T04:02:29.306Z,100235.63
2023-03-30T04:05:16.114Z,100242.19
2023-03-30T04:08:02.820Z,100250.66
2023-03-30T04:10:50.604Z,100248.47
2023-03-30T04:13:43.567Z,100247.50
2023-03-30T04:16:59.078Z,100249.13
2023-03-30T04:19:59.012Z,100236.47
2023-03-30T04:23:02.749Z,100236.06
2023-03-30T04:26:22.435Z,100228.06
2023-03-30T04:29:10.149Z,100227.19
2023-03-30T04:32:21.115Z,100231.41
2023-03-30T04:35:34.143Z,100233.56
2023-03-30T04:38:42.872Z,100235.88
2023-03-30T04:41:41.815Z,100222.63
2023-03-30T04:44:42.853Z,100229.63
2023-03-30T04:47:55.394Z,100228.16
2023-03-30T04:51:13.742Z,100229.16
2023-03-30T04:54:19.108Z,100228.03
2023-03-30T04:57:22.245Z,100230.25
2023-03-30T05:00:31.917Z,100232.56
2023-03-30T05:03:37.312Z,100233.00
2023-03-30T05:06:34.940Z,100230.56
2023-03-30T05:09:50.873Z,100231.00
2023-03-30T05:12:57.914Z,100243.50
2023-03-30T05:16:04.178Z,100242.09
2023-03-30T05:19:05.737Z,100250.44
2023-03-30T05:22:11.136Z,100228.91
2023-03-30T05:25:15.363Z,100229.94
2023-03-30T05:28:11.869Z,100236.44
2023-03-30T05:31:27.929Z,100245.38
2023-03-30T05:34:33.700Z,100242.00
2023-03-30T05:37:30.725Z,100247.56
2023-03-30T05:40:36.484Z,100248.50
2023-03-30T05:43:39.109Z,100243.72
2023-03-30T05:46:54.651Z,100238.34
2023-03-30T05:50:00.052Z,100240.16
2023-03-30T05:52:54.598Z,100245.28
2023-03-30T05:55:46.769Z,100242.72
2023-03-30T05:58:53.525Z,100249.59
2023-03-30T06:01:58.897Z,100251.75
2023-03-30T06:04:46.313Z,100245.91
2023-03-30T06:07:32.980Z,100249.66
2023-03-30T06:10:20.685Z,100262.59
2023-03-30T06:13:07.870Z,100268.44
2023-03-30T06:16:04.874Z,100260.09
2023-03-30T06:18:51.387Z,100260.50
2023-03-30T06:21:38.233Z,100265.50
2023-03-30T06:24:41.053Z,100270.13
2023-03-30T06:27:28.424Z,100273.44
2023-03-30T06:30:16.019Z,100267.69
2023-03-30T06:33:07.965Z,100271.31
2023-03-30T06:36:02.667Z,100261.88
2023-03-30T06:38:49.647Z,100271.59
2023-03-30T06:41:37.587Z,100272.53
2023-03-30T06:44:24.267Z,100286.81
2023-03-30T06:47:11.086Z,100284.97
2023-03-30T06:49:59.188Z,100290.22
2023-03-30T06:53:08.223Z,100295.81
2023-03-30T06:56:15.316Z,100301.09
2023-03-30T06:59:28.470Z,100289.25
2023-03-30T07:02:46.272Z,100297.81
2023-03-30T07:06:07.299Z,100301.31
2023-03-30T07:09:19.908Z,100309.22
2023-03-30T07:12:13.806Z,100313.38
2023-03-30T07:15:12.380Z,100317.06
2023-03-30T07:18:18.079Z,100315.06
2023-03-30T07:21:21.326Z,100323.63
2023-03-30T07:24:19.528Z,100322.22
2023-03-30T07:27:13.485Z,100325.22
2023-03-30T07:30:22.181Z,100332.63
2023-03-30T07:33:30.960Z,100340.72
2023-03-30T07:36:34.430Z,100328.59
2023-03-30T07:39:33.974Z,100334.66
2023-03-30T07:42:48.697Z,100328.03
2023-03-30T07:45:56.203Z,100330.84
2023-03-30T07:49:09.358Z,100336.81
2023-03-30T07:52:16.325Z,100341.88
2023-03-30T07:55:21.622Z,100337.72
2023-03-30T07:58:33.375Z,100346.56
2023-03-30T08:01:42.400Z,100345.56
2023-03-30T08:05:10.529Z,100353.81
2023-03-30T08:08:24.212Z,100354.47
2023-03-30T08:11:23.939Z,100368.53
2023-03-30T08:14:30.366Z,100364.59
2023-03-30T08:17:23.504Z,100347.72
2023-03-30T08:20:19.826Z,100361.59
2023-03-30T08:23:19.530Z,100375.25
2023-03-30T08:26:14.205Z,100374.63
2023-03-30T08:29:10.538Z,100373.75
2023-03-30T08:32:14.504Z,100379.44
2023-03-30T08:35:15.905Z,100393.00
2023-03-30T08:38:13.773Z,100394.78
2023-03-30T08:41:43.902Z,100405.28
2023-03-30T08:44:42.088Z,100393.63
2023-03-30T08:47:48.843Z,100403.13
2023-03-30T08:50:57.892Z,100404.84
2023-03-30T08:54:02.776Z,100412.84
2023-03-30T08:57:10.860Z,100404.50
2023-03-30T09:00:21.702Z,100406.31
2023-03-30T09:03:42.326Z,100423.69
2023-03-30T09:07:22.593Z,100410.91
2023-03-30T09:10:23.118Z,100405.81
2023-03-30T09:13:31.738Z,100399.63
2023-03-30T09:16:48.268Z,100410.47
2023-03-30T09:19:58.095Z,100411.63
2023-03-30T09:22:57.628Z,100414.78
2023-03-30T09:26:15.854Z,100426.91
2023-03-30T09:29:32.881Z,100428.97
2023-03-30T09:32:41.731Z,100437.38
2023-03-30T09:36:13.629Z,100462.09
2023-03-30T09:39:20.453Z,100461.06
2023-03-30T09:42:41.583Z,100463.53
2023-03-30T09:45:53.376Z,100466.59
2023-03-30T09:48:49.493Z,100467.94
2023-03-30T09:52:00.395Z,100472.22
2023-03-30T09:55:08.493Z,100464.25
2023-03-30T09:58:34.203Z,100476.19
2023-03-30T10:01:41.528Z,100491.50
2023-03-30T10:05:02.766Z,100478.41
2023-03-30T10:08:09.324Z,100483.16
2023-03-30T10:11:10.551Z,100492.56
2023-03-30T10:14:10.096Z,100499.00
2023-03-30T10:16:59.021Z,100494.06
2023-03-30T10:19:49.389Z,100497.88
2023-03-30T10:22:38.426Z,100514.75
2023-03-30T10:25:29.454Z,100503.59
2023-03-30T10:28:21.923Z,100502.94
2023-03-30T10:31:16.558Z,100529.72
2023-03-30T10:34:07.989Z,100520.09
2023-03-30T10:36:57.607Z,100512.25
2023-03-30T10:39:46.976Z,100521.59
2023-03-30T10:42:34.488Z,100520.88
2023-03-30T10:45:23.434Z,100521.00
2023-03-30T10:48:25.383Z,100521.28
2023-03-30T10:51:18.891Z,100534.25
2023-03-30T10:54:12.506Z,100538.47
2023-03-30T10:57:04.001Z,100546.69
2023-03-30T11:00:11.024Z,100545.44
2023-03-30T11:03:04.177Z,100559.75
2023-03-30T11:05:55.369Z,100554.28
2023-03-30T11:08:47.119Z,100544.09
2023-03-30T11:11:38.631Z,100540.06
2023-03-30T11:14:31.857Z,100547.19
2023-03-30T11:17:23.705Z,100551.97
2023-03-30T11:20:23.575Z,100550.97
2023-03-30T11:23:20.748Z,100557.88
2023-03-30T11:26:12.482Z,100564.31
2023-03-30T11:29:07.047Z,100570.38
2023-03-30T11:32:00.684Z,100565.44
2023-03-30T11:34:59.553Z,100567.41
2023-03-30T11:37:52.053Z,100564.97
2023-03-30T11:40:43.970Z,100570.69
2023-03-30T11:43:32.532Z,100570.31
2023-03-30T11:46:28.209Z,100583.50
2023-03-30T11:49:26.394Z,100588.16
2023-03-30T11:52:24.698Z,100584.91
2023-03-30T11:55:28.712Z,100578.16
2023-03-30T11:58:26.526Z,100579.22
2023-03-30T12:01:33.213Z,100581.25
2023-03-30T12:04:27.667Z,100590.84
2023-03-30T12:07:27.922Z,100594.91
2023-03-30T12:10:19.898Z,100597.03
2023-03-30T12:13:06.854Z,100596.38
2023-03-30T12:15:59.694Z,100602.00
2023-03-30T12:19:06.026Z,100604.91
2023-03-30T12:21:56.371Z,100601.09
2023-03-30T12:24:50.707Z,100592.22
2023-03-30T12:27:38.713Z,100604.25
2023-03-30T12:30:29.580Z,100597.69
2023-03-30T12:33:20.221Z,100615.53
2023-03-30T12:36:25.973Z,100589.41
2023-03-30T12:39:21.759Z,100599.53
2023-03-30T12:42:11.701Z,100595.91
2023-03-30T12:45:21.100Z,100589.50
2023-03-30T12:48:24.856Z,100587.13
2023-03-30T12:51:19.292Z,100600.38
2023-03-30T12:54:39.007Z,100594.50
2023-03-30T12:57:40.903Z,100589.38
2023-03-30T13:01:09.701Z,100594.75
2023-03-30T13:04:00.137Z,100580.94
2023-03-30T13:06:53.948Z,100561.44
2023-03-30T13:09:55.127Z,100530.84
2023-03-30T13:12:43.199Z,100529.41
2023-03-30T13:15:48.641Z,100530.84
2023-03-30T13:18:41.981Z,100540.47
2023-03-30T13:21:29.024Z,100532.59
2023-03-30T13:24:41.227Z,100523.50
2023-03-30T13:27:31.771Z,100534.38
2023-03-30T13:30:18.688Z,100541.91
2023-03-30T13:33:12.721Z,100536.16
2023-03-30T13:36:06.677Z,100541.59
2023-03-30T13:39:05.065Z,100544.78
2023-03-30T13:42:04.186Z,100551.00
2023-03-30T13:45:08.502Z,100549.81
2023-03-30T13:48:05.082Z,100549.03
2023-03-30T13:50:58.250Z,100559.59
2023-03-30T13:54:01.040Z,100548.06
2023-03-30T13:56:51.115Z,100555.63
2023-03-30T13:59:44.066Z,100552.69
2023-03-30T14:02:31.590Z,100541.56
2023-03-30T14:05:21.592Z,100543.66
2023-03-30T14:08:11.251Z,100546.13
2023-03-30T14:10:57.735Z,100549.56
2023-03-30T14:13:46.082Z,100539.50
2023-03-30T14:16:36.715Z,100557.44
2023-03-30T14:19:27.353Z,100554.25
2023-03-30T14:22:20.221Z,100543.78
2023-03-30T14:25:22.148Z,100559.22
2023-03-30T14:28:14.647Z,100553.63
2023-03-30T14:31:04.800Z,100542.91
2023-03-30T14:33:52.924Z,100554.22
2023-03-30T14:36:39.406Z,100549.00
2023-03-30T14:39:26.360Z,100563.44
2023-03-30T14:42:18.623Z,100555.00
2023-03-30T14:45:09.214Z,100553.63
2023-03-30T14:47:56.590Z,100569.59
2023-03-30T14:50:46.630Z,100566.38
2023-03-30T14:53:33.274Z,100568.75
2023-03-30T14:56:20.797Z,100572.22
2023-03-30T14:59:08.417Z,100573.72
2023-03-30T15:01:56.344Z,100558.41
2023-03-30T15:04:42.643Z,100566.19
2023-03-30T15:07:32.871Z,100571.91
2023-03-30T15:10:26.559Z,100568.38
2023-03-30T15:13:21.606Z,100559.47
2023-03-30T15:16:08.738Z,100560.78
2023-03-30T15:19:02.578Z,100557.34
2023-03-30T15:21:55.007Z,100558.78
2023-03-30T15:24:43.424Z,100570.66
2023-03-30T15:27:30.984Z,100579.69
2023-03-30T15:30:29.529Z,100568.91
2023-03-30T15:33:25.377Z,100560.28
2023-03-30T15:36:14.079Z,100562.31
2023-03-30T15:39:01.218Z,100558.06
2023-03-30T15:41:50.740Z,100565.44
2023-03-30T15:44:39.059Z,100555.44
2023-03-30T15:47:25.329Z,100557.94
2023-03-30T15:50:14.342Z,100549.13
2023-03-30T15:53:02.445Z,100539.25
2023-03-30T15:55:53.024Z,100549.25
2023-03-30T15:58:41.516Z,100555.88
2023-03-30T16:01:48.568Z,100556.06
2023-03-30T16:04:35.669Z,100548.53
2023-03-30T16:07:25.268Z,100547.81
2023-03-30T16:10:14.636Z,100560.31
2023-03-30T16:13:02.447Z,100542.56
2023-03-30T16:15:52.250Z,100548.63
2023-03-30T16:18:41.233Z,100549.50
2023-03-30T16:21:29.406Z,100555.31
2023-03-30T16:24:16.577Z,100547.47
2023-03-30T16:27:05.126Z,100538.19
2023-03-30T16:29:51.372Z,100540.09
2023-03-30T16:32:39.966Z,100537.22
2023-03-30T16:35:31.532Z,100529.00
2023-03-30T16:38:19.483Z,100549.44
2023-03-30T16:41:06.915Z,100547.03
2023-03-30T16:43:53.349Z,100549.75
2023-03-30T16:46:42.452Z,100535.94
2023-03-30T16:49:30.659Z,100525.69
2023-03-30T16:52:16.625Z,100528.50
2023-03-30T16:55:02.854Z,100529.16
2023-03-30T16:57:49.737Z,100536.47
2023-03-30T17:00:41.082Z,100539.47
2023-03-30T17:03:28.785Z,100537.88
2023-03-30T17:06:17.024Z,100544.09
2023-03-30T17:09:03.812Z,100528.13
2023-03-30T17:11:50.944Z,100530.00
2023-03-30T17:14:37.573Z,100540.81
2023-03-30T17:17:23.946Z,100537.41
2023-03-30T17:20:31.519Z,100530.56
2023-03-30T17:23:19.860Z,100532.75
2023-03-30T17:26:07.690Z,100537.06
2023-03-30T17:28:54.389Z,100533.53
2023-03-30T17:31:45.324Z,100541.72
2023-03-30T17:34:32.231Z,100535.06
2023-03-30T17:37:19.865Z,100538.66
2023-03-30T17:40:16.460Z,100544.31
2023-03-30T17:43:02.953Z,100543.09
2023-03-30T17:45:50.067Z,100548.50
2023-03-30T17:48:36.971Z,100547.75
2023-03-30T17:51:23.106Z,100553.19
2023-03-30T17:54:09.749Z,100545.56
2023-03-30T17:56:57.785Z,100541.09
2023-03-30T17:59:51.176Z,100542.22
2023-03-30T18:02:38.389Z,100538.81
2023-03-30T18:05:27.508Z,100538.63
2023-03-30T18:08:17.469Z,100530.13
2023-03-30T18:11:05.774Z,100532.69
2023-03-30T18:13:54.755Z,100531.78
2023-03-30T18:16:43.794Z,100527.41
2023-03-30T18:19:30.419Z,100530.44
2023-03-30T18:22:17.253Z,100518.63
2023-03-30T18:25:04.615Z,100511.72
2023-03-30T18:27:51.918Z,100517.78
2023-03-30T18:30:40.337Z,100513.41
2023-03-30T18:33:27.129Z,100509.03
2023-03-30T18:36:15.042Z,100507.97
2023-03-30T18:39:02.561Z,100510.28
2023-03-30T18:41:54.950Z,100511.72
2023-03-30T18:44:45.759Z,100508.63
2023-03-30T18:47:34.002Z,100510.28
2023-03-30T18:50:23.695Z,100513.00
2023-03-30T18:53:11.587Z,100508.81
2023-03-30T18:56:00.719Z,100503.19
2023-03-30T18:58:47.789Z,100502.75
2023-03-30T19:01:34.919Z,100501.13
2023-03-30T19:04:22.781Z,100492.13
2023-03-30T19:07:11.053Z,100491.25
2023-03-30T19:09:57.337Z,100504.06
2023-03-30T19:12:44.179Z,100500.22
2023-03-30T19:15:32.995Z,100499.63
2023-03-30T19:18:20.189Z,100501.34
2023-03-30T19:21:10.832Z,100498.66
2023-03-30T19:23:57.162Z,100490.50
2023-03-30T19:26:43.701Z,100491.75
2023-03-30T19:29:30.146Z,100487.31
2023-03-30T19:32:16.723Z,100481.91
2023-03-30T19:35:03.357Z,100478.13
2023-03-30T19:37:51.461Z,100478.34
2023-03-30T19:40:38.840Z,100474.16
2023-03-30T19:43:25.525Z,100472.28
2023-03-30T19:46:11.489Z,100471.06
2023-03-30T19:48:58.191Z,100465.19
2023-03-30T19:51:44.473Z,100458.72
2023-03-30T19:54:32.366Z,100454.56
2023-03-30T19:57:19.116Z,100462.09
2023-03-30T20:00:12.550Z,100454.75
2023-03-30T20:02:59.230Z,100452.66
2023-03-30T20:05:50.366Z,100449.34
2023-03-30T20:08:38.009Z,100447.03
2023-03-30T20:11:26.094Z,100447.63
2023-03-30T20:14:12.966Z,100441.78
2023-03-30T20:17:00.354Z,100431.13
2023-03-30T20:19:46.753Z,100425.91
2023-03-30T20:22:33.477Z,100425.31
2023-03-30T20:25:22.232Z,100422.38
2023-03-30T20:28:09.882Z,100419.66
2023-03-30T20:30:56.959Z,100421.13
2023-03-30T20:33:43.720Z,100415.69
2023-03-30T20:36:33.088Z,100414.84
2023-03-30T20:39:22.208Z,100407.75
2023-03-30T20:42:09.405Z,100407.75
2023-03-30T20:44:57.698Z,100413.16
2023-03-30T20:47:50.018Z,100402.94
2023-03-30T20:50:37.036Z,100401.25
2023-03-30T20:53:23.841Z,100403.53
2023-03-30T20:56:11.805Z,100400.03
2023-03-30T20:58:58.517Z,100413.75
2023-03-30T21:01:47.098Z,100412.88
2023-03-30T21:04:34.187Z,100405.66
2023-03-30T21:07:24.520Z,100405.19
2023-03-30T21:10:11.221Z,100396.38
2023-03-30T21:12:57.701Z,100395.00
2023-03-30T21:15:44.093Z,100394.72
2023-03-30T21:18:31.893Z,100389.88
2023-03-30T21:21:18.107Z,100388.03
2023-03-30T21:24:05.719Z,100380.72
2023-03-30T21:26:52.291Z,100379.50
2023-03-30T21:29:38.726Z,100372.81
2023-03-30T21:32:25.405Z,100377.19
2023-03-30T21:35:12.885Z,100369.78
2023-03-30T21:38:00.100Z,100362.44
2023-03-30T21:41:00.974Z,100356.81
2023-03-30T21:43:48.146Z,100353.28
2023-03-30T21:46:34.355Z,100356.16
2023-03-30T21:49:20.846Z,100356.09
2023-03-30T21:52:08.630Z,100356.69
2023-03-30T21:54:54.907Z,100343.88
2023-03-30T21:57:41.149Z,100358.00
2023-03-30T22:00:27.319Z,100342.88
2023-03-30T22:03:13.832Z,100344.34
2023-03-30T22:06:01.721Z,100341.00
2023-03-30T22:08:49.641Z,100333.50
2023-03-30T22:11:36.139Z,100340.38
2023-03-30T22:14:22.813Z,100336.00
2023-03-30T22:17:11.320Z,100332.50
2023-03-30T22:19:58.386Z,100329.38
2023-03-30T22:22:45.465Z,100337.50
2023-03-30T22:25:33.162Z,100320.66
2023-03-30T22:28:19.655Z,100312.34
2023-03-30T22:31:08.096Z,100311.31
2023-03-30T22:33:54.912Z,100315.69
2023-03-30T22:36:42.257Z,100311.50
2023-03-30T22:39:28.882Z,100311.75
2023-03-30T22:42:16.822Z,100311.50
2023-03-30T22:45:03.544Z,100301.06
2023-03-30T22:47:50.205Z,100297.09
2023-03-30T22:50:37.049Z,100294.41
2023-03-30T22:53:23.561Z,100283.75
2023-03-30T22:56:09.896Z,100282.72
2023-03-30T22:58:58.339Z,100280.81
2023-03-30T23:01:44.467Z,100269.09
2023-03-30T23:04:30.971Z,100262.88
2023-03-30T23:07:17.442Z,100243.50
2023-03-30T23:10:04.131Z,100242.03
2023-03-30T23:12:50.937Z,100238.03
2023-03-30T23:15:38.511Z,100244.13
2023-03-30T23:18:24.797Z,100249.28
2023-03-30T23:21:13.834Z,100252.06
2023-03-30T23:24:00.385Z,100243.69
2023-03-30T23:26:47.621Z,100232.56
2023-03-30T23:29:34.049Z,100224.94
2023-03-30T23:32:21.918Z,100211.66
2023-03-30T23:35:08.890Z,100216.19
2023-03-30T23:37:55.178Z,100213.44
2023-03-30T23:40:41.803Z,100210.50
2023-03-30T23:43:28.742Z,100199.19
2023-03-30T23:46:15.597Z,100189.22
2023-03-30T23:49:04.233Z,100195.53
2023-03-30T23:51:50.525Z,100192.13
2023-03-30T23:54:40.838Z,100173.44
2023-03-30T23:57:27.282Z,100180.31
